Time;durP1;ratioP1;P1;durP2;ratioP2;P2;SDS_P1;SDS_P2;PMS_P1;PMS_P2;Temp;Humidity;BMP_temperature;BMP_pressure;BME280_temperature;BME280_humidity;BME280_pressure;Samples;Min_cycle;Max_cycle;Signal;HPM_P1;HPM_P2
2022/03/04 00:01:03;;;;;;;18.73;11.90;;;5.10;44.00;;;;;;5072390;28;20024;-83
2022/03/04 00:03:29;;;;;;;29.53;11.90;;;5.00;44.10;;;;;;5055803;28;20713;-82
2022/03/04 00:05:55;;;;;;;16.03;10.83;;;4.90;44.20;;;;;;5075453;28;20100;-83
2022/03/04 00:08:21;;;;;;;22.00;12.93;;;5.00;44.30;;;;;;5057672;28;20045;-83
2022/03/04 00:10:47;;;;;;;22.47;11.80;;;4.90;44.40;;;;;;5054567;28;20036;-83
2022/03/04 00:13:13;;;;;;;21.97;13.00;;;4.80;44.60;;;;;;5075582;28;20444;-83
2022/03/04 00:15:39;;;;;;;18.67;12.30;;;4.90;44.60;;;;;;5057854;28;20383;-82
2022/03/04 00:18:05;;;;;;;18.77;12.03;;;5.00;44.50;;;;;;5075771;28;20035;-83
2022/03/04 00:20:31;;;;;;;19.37;12.40;;;4.90;44.50;;;;;;5056183;28;20393;-83
2022/03/04 00:22:57;;;;;;;16.70;11.13;;;4.90;44.60;;;;;;5056101;28;20543;-83
2022/03/04 00:25:23;;;;;;;18.97;11.60;;;4.80;44.80;;;;;;5054954;28;20028;-82
2022/03/04 00:27:49;;;;;;;21.27;11.00;;;4.80;44.90;;;;;;5057361;28;20024;-82
2022/03/04 00:30:15;;;;;;;19.03;10.80;;;4.80;45.10;;;;;;5039731;28;20096;-82
2022/03/04 00:32:41;;;;;;;19.70;11.40;;;4.70;45.10;;;;;;5057429;28;20038;-82
2022/03/04 00:35:08;;;;;;;17.10;10.67;;;4.70;45.20;;;;;;5060868;28;20036;-83
2022/03/04 00:37:33;;;;;;;17.07;10.40;;;4.70;45.20;;;;;;5057237;28;20052;-83
2022/03/04 00:39:59;;;;;;;19.57;11.83;;;4.70;45.20;;;;;;5057683;28;20025;-83
2022/03/04 00:42:27;;;;;;;16.10;10.83;;;4.80;45.20;;;;;;5056784;28;20111;-83
2022/03/04 00:44:53;;;;;;;16.70;11.00;;;4.80;45.10;;;;;;5056977;28;20028;-83
2022/03/04 00:47:19;;;;;;;16.10;10.33;;;4.80;45.00;;;;;;5055473;28;20028;-83
2022/03/04 00:49:45;;;;;;;17.43;10.40;;;4.70;45.10;;;;;;5056333;28;20644;-83
2022/03/04 00:52:10;;;;;;;24.37;12.07;;;4.70;45.30;;;;;;5057566;28;20542;-82
2022/03/04 00:54:36;;;;;;;20.60;12.53;;;4.70;45.40;;;;;;5073875;28;20024;-83
2022/03/04 00:57:02;;;;;;;18.03;11.27;;;4.60;45.50;;;;;;5065564;28;20024;-83
2022/03/04 00:59:27;;;;;;;17.27;11.20;;;4.50;45.80;;;;;;5056735;28;20040;-82
2022/03/04 01:01:53;;;;;;;17.50;11.17;;;4.40;46.00;;;;;;5062619;28;20028;-83
2022/03/04 01:04:19;;;;;;;19.57;11.63;;;4.40;46.10;;;;;;5074858;28;20033;-83
2022/03/04 01:06:44;;;;;;;18.47;11.13;;;4.40;46.10;;;;;;5053838;28;20075;-83
2022/03/04 01:09:10;;;;;;;19.13;12.00;;;4.40;46.30;;;;;;5055494;28;20131;-82
2022/03/04 01:11:37;;;;;;;18.90;11.40;;;4.40;46.40;;;;;;5043222;28;20059;-83
2022/03/04 01:14:04;;;;;;;18.13;10.60;;;4.40;46.50;;;;;;5052801;28;20021;-83
2022/03/04 01:16:29;;;;;;;16.87;10.93;;;4.30;46.50;;;;;;5074463;28;20033;-83
2022/03/04 01:18:55;;;;;;;19.07;11.57;;;4.30;46.50;;;;;;5057038;28;20478;-83
2022/03/04 01:21:21;;;;;;;18.50;11.93;;;4.30;47.20;;;;;;5056646;28;20490;-83
2022/03/04 01:23:46;;;;;;;20.13;12.10;;;4.20;46.70;;;;;;5055652;28;20037;-83
2022/03/04 01:26:13;;;;;;;20.97;12.43;;;4.20;46.80;;;;;;5072389;28;20032;-83
2022/03/04 01:28:39;;;;;;;19.00;11.40;;;4.20;46.90;;;;;;5072514;28;20078;-83
2022/03/04 01:31:04;;;;;;;20.23;12.37;;;4.20;46.90;;;;;;5056301;28;20036;-83
2022/03/04 01:33:30;;;;;;;19.70;13.20;;;4.20;46.90;;;;;;5056334;28;20028;-83
2022/03/04 01:35:56;;;;;;;20.27;12.30;;;4.20;47.00;;;;;;5051590;28;20029;-83
2022/03/04 01:38:22;;;;;;;21.53;13.00;;;4.10;47.10;;;;;;5063834;28;20020;-83
2022/03/04 01:40:47;;;;;;;19.43;13.17;;;4.00;47.40;;;;;;5063327;28;20115;-83
2022/03/04 01:43:13;;;;;;;21.63;12.87;;;4.00;47.40;;;;;;5072340;28;20103;-83
2022/03/04 01:45:39;;;;;;;20.43;14.10;;;4.10;47.40;;;;;;5060794;28;20020;-83
2022/03/04 01:48:06;;;;;;;23.37;15.47;;;4.10;47.40;;;;;;5073162;28;20116;-83
2022/03/04 01:50:32;;;;;;;21.50;14.23;;;4.10;47.60;;;;;;5055891;28;20086;-83
2022/03/04 01:52:57;;;;;;;20.47;13.20;;;4.00;47.50;;;;;;5054926;28;20456;-83
2022/03/04 01:55:23;;;;;;;20.23;13.97;;;4.00;47.70;;;;;;5055431;28;20374;-84
2022/03/04 01:57:49;;;;;;;21.97;14.47;;;4.00;47.80;;;;;;5056953;28;20029;-83
2022/03/04 02:00:15;;;;;;;22.07;14.33;;;3.90;47.80;;;;;;5070182;28;20028;-83
2022/03/04 02:02:43;;;;;;;22.53;13.37;;;3.90;47.80;;;;;;5071242;28;20048;-83
2022/03/04 02:05:16;;;;;;;21.07;12.73;;;3.80;48.00;;;;;;5073555;28;20525;-83
2022/03/04 02:07:42;;;;;;;21.87;12.67;;;3.90;48.10;;;;;;5054648;28;20049;-83
2022/03/04 02:10:09;;;;;;;20.33;13.33;;;3.90;47.90;;;;;;5055480;28;20066;-83
2022/03/04 02:12:36;;;;;;;19.47;12.80;;;3.90;47.70;;;;;;5055438;28;20032;-83
2022/03/04 02:15:03;;;;;;;18.73;12.57;;;3.90;47.60;;;;;;5070348;28;20158;-83
2022/03/04 02:17:29;;;;;;;21.40;14.17;;;3.90;47.50;;;;;;5052590;28;20031;-84
2022/03/04 02:19:55;;;;;;;22.90;14.17;;;3.90;47.50;;;;;;5050370;28;20021;-83
2022/03/04 02:22:21;;;;;;;23.73;14.73;;;3.90;47.50;;;;;;5071570;28;20036;-83
2022/03/04 02:24:47;;;;;;;22.43;14.07;;;3.90;47.60;;;;;;5072528;28;20050;-83
2022/03/04 02:27:13;;;;;;;21.77;14.03;;;3.90;47.70;;;;;;5059813;28;20036;-82
2022/03/04 02:29:38;;;;;;;20.90;14.07;;;3.90;47.80;;;;;;5073273;28;20029;-82
2022/03/04 02:32:05;;;;;;;23.97;14.83;;;3.90;47.80;;;;;;5055468;28;20478;-82
2022/03/04 02:34:30;;;;;;;22.57;14.33;;;3.90;47.80;;;;;;5055051;28;20383;-83
2022/03/04 02:36:57;;;;;;;21.00;12.37;;;3.80;47.90;;;;;;5049995;28;20082;-83
2022/03/04 02:39:23;;;;;;;18.20;12.03;;;3.80;48.00;;;;;;5055301;28;20029;-83
2022/03/04 02:41:49;;;;;;;18.63;12.70;;;3.80;48.00;;;;;;5072450;28;20036;-83
2022/03/04 02:44:15;;;;;;;22.23;12.87;;;3.80;48.10;;;;;;5056951;28;20066;-83
2022/03/04 02:46:41;;;;;;;22.93;14.13;;;3.70;48.20;;;;;;5063953;28;20123;-83
2022/03/04 02:49:09;;;;;;;20.30;13.37;;;3.70;48.30;;;;;;5072408;28;20155;-83
2022/03/04 02:51:36;;;;;;;23.87;14.57;;;3.60;48.30;;;;;;5055201;28;20123;-83
2022/03/04 02:54:02;;;;;;;27.70;14.37;;;3.70;48.40;;;;;;5065215;28;20526;-82
2022/03/04 02:56:28;;;;;;;21.23;13.83;;;3.70;48.30;;;;;;5071530;28;20481;-83
2022/03/04 02:58:53;;;;;;;22.40;14.10;;;3.70;48.20;;;;;;5063548;28;20036;-83
2022/03/04 03:01:19;;;;;;;20.47;13.30;;;3.70;48.30;;;;;;5071813;28;20033;-83
2022/03/04 03:03:45;;;;;;;21.63;13.57;;;3.70;48.30;;;;;;5054765;28;20029;-83
2022/03/04 03:06:11;;;;;;;18.27;12.33;;;3.70;48.30;;;;;;5054285;28;20028;-83
2022/03/04 03:08:37;;;;;;;19.57;11.60;;;3.60;48.20;;;;;;5054260;28;20093;-83
2022/03/04 03:11:03;;;;;;;21.63;12.87;;;3.60;48.20;;;;;;5072449;28;20115;-83
2022/03/04 03:13:29;;;;;;;18.10;11.57;;;3.50;48.30;;;;;;5054189;28;20048;-83
2022/03/04 03:15:54;;;;;;;24.83;12.87;;;3.50;48.30;;;;;;5054577;28;20479;-83
2022/03/04 03:18:20;;;;;;;22.17;13.43;;;3.50;48.30;;;;;;5071918;28;20052;-83
2022/03/04 03:20:46;;;;;;;24.03;13.03;;;3.50;48.30;;;;;;5053486;28;20033;-83
2022/03/04 03:23:11;;;;;;;22.73;13.13;;;3.50;48.30;;;;;;5071022;28;20025;-83
2022/03/04 03:25:37;;;;;;;20.50;13.27;;;3.40;48.30;;;;;;5072302;28;20175;-83
2022/03/04 03:28:03;;;;;;;22.33;13.40;;;3.40;48.40;;;;;;5081135;28;20054;-83
2022/03/04 03:30:30;;;;;;;22.80;11.97;;;3.40;48.40;;;;;;5054618;28;20028;-83
2022/03/04 03:32:56;;;;;;;17.93;12.10;;;3.40;48.50;;;;;;5072870;28;20032;-83
2022/03/04 03:35:22;;;;;;;19.90;12.77;;;3.30;48.40;;;;;;5055022;28;20025;-84
2022/03/04 03:37:48;;;;;;;19.67;12.53;;;3.30;48.50;;;;;;5053319;28;20033;-83
2022/03/04 03:40:14;;;;;;;22.20;13.13;;;3.30;48.70;;;;;;5037113;28;20024;-83
2022/03/04 03:42:40;;;;;;;21.07;13.37;;;3.30;48.70;;;;;;5059815;28;20556;-83
2022/03/04 03:45:07;;;;;;;21.70;14.20;;;3.20;48.70;;;;;;5058145;28;20021;-80
2022/03/04 03:47:33;;;;;;;22.67;13.53;;;3.10;48.90;;;;;;5069918;28;20060;-83
2022/03/04 03:50:00;;;;;;;22.83;14.23;;;3.10;49.10;;;;;;5073162;28;20401;-82
2022/03/04 03:52:27;;;;;;;19.87;12.50;;;3.20;49.20;;;;;;5072596;28;20020;-82
2022/03/04 03:54:53;;;;;;;20.77;12.90;;;3.10;49.20;;;;;;5054653;28;20369;-83
2022/03/04 03:57:18;;;;;;;21.63;12.73;;;3.10;49.10;;;;;;5056819;28;20546;-83
2022/03/04 03:59:44;;;;;;;23.27;13.97;;;3.20;49.10;;;;;;5054170;28;20040;-83
2022/03/04 04:02:10;;;;;;;23.43;14.43;;;3.10;49.10;;;;;;5071946;28;20104;-83
2022/03/04 04:04:36;;;;;;;23.70;13.57;;;3.10;49.40;;;;;;5054119;28;20545;-83
2022/03/04 04:07:08;;;;;;;20.10;12.67;;;3.00;49.60;;;;;;5072259;28;20032;-83
2022/03/04 04:09:33;;;;;;;18.73;12.20;;;3.00;49.60;;;;;;5054305;28;20075;-84
2022/03/04 04:11:59;;;;;;;17.13;11.40;;;3.00;49.70;;;;;;5054016;28;20056;-83
2022/03/04 04:14:26;;;;;;;19.57;12.47;;;3.00;49.70;;;;;;5054160;28;20089;-83
2022/03/04 04:16:52;;;;;;;25.90;13.33;;;2.90;49.80;;;;;;5049550;28;20061;-83
2022/03/04 04:19:17;;;;;;;20.73;13.50;;;2.90;49.90;;;;;;5072433;28;20056;-84
2022/03/04 04:21:43;;;;;;;23.43;13.70;;;2.90;50.00;;;;;;5054247;28;20021;-84
2022/03/04 04:24:09;;;;;;;23.37;13.47;;;2.90;50.10;;;;;;5071075;28;20036;-83
2022/03/04 04:26:35;;;;;;;20.40;13.10;;;2.80;50.20;;;;;;5064595;28;20402;-83
2022/03/04 04:29:01;;;;;;;23.93;13.20;;;2.80;50.40;;;;;;5053430;28;20059;-83
2022/03/04 04:31:27;;;;;;;21.20;13.00;;;2.80;50.30;;;;;;5035829;28;20338;-83
2022/03/04 04:33:53;;;;;;;22.40;13.37;;;2.70;50.40;;;;;;5065736;28;20113;-83
2022/03/04 04:36:19;;;;;;;18.27;12.00;;;2.70;50.40;;;;;;5052104;28;20040;-83
2022/03/04 04:38:45;;;;;;;20.90;11.90;;;2.80;50.40;;;;;;5061409;28;20028;-83
2022/03/04 04:41:11;;;;;;;17.83;11.80;;;2.70;50.30;;;;;;5040595;28;20051;-83
2022/03/04 04:43:37;;;;;;;21.40;13.07;;;2.60;50.50;;;;;;5048756;28;20032;-83
2022/03/04 04:46:04;;;;;;;20.93;13.43;;;2.60;50.70;;;;;;5047576;28;20033;-83
2022/03/04 04:48:31;;;;;;;29.47;13.93;;;2.60;50.70;;;;;;5063023;28;20108;-83
2022/03/04 04:50:59;;;;;;;24.20;14.97;;;2.70;50.80;;;;;;5045043;28;20557;-83
2022/03/04 04:53:28;;;;;;;21.50;13.23;;;2.70;50.80;;;;;;5054799;28;20283;-83
2022/03/04 04:55:54;;;;;;;24.23;13.77;;;2.60;50.90;;;;;;5050981;28;20271;-83
2022/03/04 04:58:20;;;;;;;22.07;13.93;;;2.50;51.10;;;;;;5063167;28;20374;-83
2022/03/04 05:00:50;;;;;;;21.90;12.70;;;2.50;51.20;;;;;;5043614;28;20371;-83
2022/03/04 05:03:17;;;;;;;22.40;14.07;;;2.50;51.30;;;;;;5048284;28;20029;-83
2022/03/04 05:05:43;;;;;;;23.47;13.23;;;2.40;51.40;;;;;;5054643;28;20283;-83
2022/03/04 05:08:09;;;;;;;27.33;14.33;;;2.30;51.50;;;;;;5066971;28;20792;-84
2022/03/04 05:10:34;;;;;;;20.73;12.73;;;2.30;51.60;;;;;;5049664;28;20025;-83
2022/03/04 05:13:00;;;;;;;21.17;12.47;;;2.30;51.80;;;;;;5064774;28;20068;-83
2022/03/04 05:15:26;;;;;;;20.07;12.77;;;2.30;51.60;;;;;;5041411;28;20032;-83
2022/03/04 05:17:52;;;;;;;28.60;13.73;;;2.30;51.50;;;;;;5048461;28;20042;-83
2022/03/04 05:20:18;;;;;;;18.00;12.43;;;2.30;51.60;;;;;;5059152;28;20044;-83
2022/03/04 05:22:44;;;;;;;17.63;11.40;;;2.20;51.50;;;;;;5051040;28;20123;-83
2022/03/04 05:25:10;;;;;;;20.27;12.27;;;2.20;51.70;;;;;;5048857;28;20420;-83
2022/03/04 05:27:36;;;;;;;21.53;12.40;;;2.20;51.80;;;;;;5067813;28;20088;-82
2022/03/04 05:30:04;;;;;;;20.20;11.90;;;2.20;51.50;;;;;;5060661;28;20283;-83
2022/03/04 05:32:29;;;;;;;22.60;13.20;;;2.10;51.80;;;;;;5051487;28;20316;-83
2022/03/04 05:34:55;;;;;;;20.13;12.53;;;2.20;51.80;;;;;;5043672;28;20831;-83
2022/03/04 05:37:21;;;;;;;25.20;14.57;;;2.20;51.90;;;;;;5055015;28;20028;-83
2022/03/04 05:39:47;;;;;;;23.30;13.63;;;2.20;51.80;;;;;;5053192;28;20059;-83
2022/03/04 05:42:13;;;;;;;24.93;13.77;;;2.20;51.80;;;;;;5048121;28;20319;-83
2022/03/04 05:44:38;;;;;;;20.77;13.50;;;2.20;51.90;;;;;;5067698;28;20456;-83
2022/03/04 05:47:04;;;;;;;28.50;15.27;;;2.20;52.00;;;;;;5068282;28;20058;-83
2022/03/04 05:49:30;;;;;;;30.33;17.30;;;2.20;52.10;;;;;;5052882;28;20032;-84
2022/03/04 05:51:56;;;;;;;31.67;16.77;;;2.20;52.20;;;;;;5045295;28;20096;-83
2022/03/04 05:54:22;;;;;;;26.70;16.60;;;2.20;52.20;;;;;;5051649;28;20060;-83
2022/03/04 05:56:47;;;;;;;30.60;17.90;;;2.20;52.10;;;;;;5053492;28;20522;-83
2022/03/04 05:59:13;;;;;;;35.93;18.30;;;2.20;52.20;;;;;;5055584;28;20029;-83
2022/03/04 06:01:39;;;;;;;29.17;18.67;;;2.20;52.30;;;;;;5054796;28;20024;-83
2022/03/04 06:04:04;;;;;;;26.03;16.47;;;2.10;52.40;;;;;;5055624;28;20029;-83
2022/03/04 06:06:30;;;;;;;26.60;15.93;;;2.20;52.30;;;;;;5055225;28;20060;-83
2022/03/04 06:08:56;;;;;;;26.73;14.83;;;2.10;52.10;;;;;;5050380;28;20415;-83
2022/03/04 06:11:21;;;;;;;27.17;15.93;;;2.10;52.10;;;;;;5052155;28;20115;-83
2022/03/04 06:13:47;;;;;;;29.63;14.90;;;2.10;52.20;;;;;;5052531;28;20044;-83
2022/03/04 06:16:13;;;;;;;34.23;16.70;;;2.10;52.20;;;;;;5070960;28;20036;-84
2022/03/04 06:18:39;;;;;;;26.77;16.53;;;2.10;52.30;;;;;;5073554;28;20466;-83
2022/03/04 06:21:05;;;;;;;40.77;16.27;;;2.10;52.00;;;;;;5056006;28;20140;-83
2022/03/04 06:23:30;;;;;;;28.30;16.70;;;2.10;52.20;;;;;;5067310;28;20039;-83
2022/03/04 06:26:00;;;;;;;36.30;17.60;;;2.10;52.10;;;;;;5055296;28;20021;-83
2022/03/04 06:28:27;;;;;;;30.90;15.87;;;2.10;52.10;;;;;;5055612;28;20033;-83
2022/03/04 06:30:53;;;;;;;29.33;17.10;;;2.20;52.20;;;;;;5055840;28;20263;-84
2022/03/04 06:33:32;;;;;;;29.50;17.80;;;2.20;52.10;;;;;;5055700;28;20274;-83
2022/03/04 06:36:10;;;;;;;32.73;18.30;;;2.30;52.20;;;;;;5055909;28;20274;-83
2022/03/04 06:38:41;;;;;;;35.67;16.93;;;2.30;52.40;;;;;;5055778;28;20312;-83
2022/03/04 06:41:08;;;;;;;60.33;22.10;;;2.20;52.40;;;;;;5055499;28;20550;-83
2022/03/04 06:43:34;;;;;;;39.80;19.23;;;2.30;52.50;;;;;;5055302;28;20274;-84
2022/03/04 06:46:02;;;;;;;47.30;21.90;;;2.20;52.50;;;;;;5055184;28;20020;-83
2022/03/04 06:48:28;;;;;;;38.77;20.57;;;2.20;52.50;;;;;;5040843;28;20797;-83
2022/03/04 06:50:54;;;;;;;46.47;20.63;;;2.20;52.50;;;;;;5055379;28;20450;-84
2022/03/04 06:53:20;;;;;;;39.13;20.70;;;2.20;52.50;;;;;;5053022;28;20373;-83
2022/03/04 06:55:47;;;;;;;38.67;21.23;;;2.30;52.50;;;;;;5067058;28;20028;-83
2022/03/04 06:58:14;;;;;;;37.03;19.10;;;2.30;52.50;;;;;;5057657;28;20309;-83
2022/03/04 07:00:41;;;;;;;50.00;25.27;;;2.20;52.50;;;;;;5054897;28;22196;-83
2022/03/04 07:03:07;;;;;;;39.73;22.37;;;2.20;52.50;;;;;;5049350;28;20776;-83
2022/03/04 07:05:33;;;;;;;37.83;21.23;;;2.20;52.90;;;;;;5054539;28;20274;-83
2022/03/04 07:07:59;;;;;;;35.17;20.37;;;2.20;52.80;;;;;;5048678;28;20291;-84
2022/03/04 07:10:25;;;;;;;33.80;18.67;;;2.30;52.80;;;;;;5052618;28;20376;-84
2022/03/04 07:12:52;;;;;;;30.13;17.20;;;2.30;52.80;;;;;;5051584;28;20108;-84
2022/03/04 07:15:19;;;;;;;34.67;17.20;;;2.40;52.80;;;;;;5067749;28;20040;-84
2022/03/04 07:17:48;;;;;;;37.33;19.10;;;2.40;52.80;;;;;;5040389;28;20804;-83
2022/03/04 07:20:14;;;;;;;34.83;18.50;;;2.30;52.90;;;;;;5055824;28;20280;-84
2022/03/04 07:22:42;;;;;;;52.87;28.10;;;2.30;53.10;;;;;;5062515;28;20029;-84
2022/03/04 07:25:10;;;;;;;46.83;26.70;;;2.30;52.90;;;;;;5053799;28;20310;-84
2022/03/04 07:27:37;;;;;;;41.03;23.90;;;2.40;52.80;;;;;;5046266;28;20075;-84
2022/03/04 07:30:05;;;;;;;34.67;19.80;;;2.40;52.90;;;;;;5051849;28;20040;-83
2022/03/04 07:32:32;;;;;;;32.63;17.97;;;2.40;52.90;;;;;;5050991;28;20160;-84
2022/03/04 07:34:58;;;;;;;32.80;18.93;;;2.40;52.90;;;;;;5050734;28;20340;-84
2022/03/04 07:37:24;;;;;;;34.53;19.20;;;2.40;53.00;;;;;;5059137;28;20291;-84
2022/03/04 07:39:50;;;;;;;28.87;18.30;;;2.40;53.20;;;;;;5067666;28;20840;-84
2022/03/04 07:42:16;;;;;;;31.17;17.97;;;2.40;53.20;;;;;;5047564;28;20121;-84
2022/03/04 07:44:42;;;;;;;33.27;18.67;;;2.40;53.30;;;;;;5049025;28;20418;-84
2022/03/04 07:47:08;;;;;;;30.73;17.07;;;2.50;53.30;;;;;;5062583;28;20041;-84
2022/03/04 07:49:34;;;;;;;31.53;18.63;;;2.50;53.30;;;;;;5056050;28;20483;-84
2022/03/04 07:51:59;;;;;;;30.10;17.90;;;2.50;53.20;;;;;;5050539;28;20539;-84
2022/03/04 07:54:25;;;;;;;36.23;17.93;;;2.50;53.10;;;;;;5050932;28;20028;-84
2022/03/04 07:56:52;;;;;;;29.43;17.70;;;2.60;53.10;;;;;;5031966;28;20029;-84
2022/03/04 07:59:19;;;;;;;32.10;18.70;;;2.60;53.00;;;;;;5040117;28;20033;-84
2022/03/04 08:01:45;;;;;;;27.20;17.97;;;2.70;53.00;;;;;;5046439;28;20029;-84
2022/03/04 08:04:11;;;;;;;30.27;17.87;;;2.70;52.90;;;;;;5039854;28;20032;-84
2022/03/04 08:06:39;;;;;;;37.70;19.23;;;2.70;52.70;;;;;;5048542;28;20116;-84
2022/03/04 08:09:04;;;;;;;33.43;18.37;;;2.80;52.70;;;;;;5050714;28;20303;-84
2022/03/04 08:11:30;;;;;;;28.17;18.33;;;2.80;52.60;;;;;;5067589;28;20033;-84
2022/03/04 08:13:56;;;;;;;30.10;17.10;;;2.80;52.50;;;;;;5049511;28;20033;-84
2022/03/04 08:16:24;;;;;;;28.63;17.70;;;2.80;52.40;;;;;;5042328;28;20112;-84
2022/03/04 08:18:50;;;;;;;37.90;18.63;;;2.80;52.30;;;;;;5050434;28;20029;-84
2022/03/04 08:21:15;;;;;;;30.10;17.87;;;2.90;52.20;;;;;;5058623;28;20028;-84
2022/03/04 08:23:41;;;;;;;34.33;17.50;;;3.10;52.20;;;;;;5052800;28;20021;-84
2022/03/04 08:26:07;;;;;;;28.00;18.10;;;4.10;52.20;;;;;;5070215;28;20036;-85
2022/03/04 08:28:33;;;;;;;29.50;15.77;;;5.20;51.50;;;;;;5050510;28;20028;-82
2022/03/04 08:30:59;;;;;;;20.95;15.48;;;6.30;50.90;;;;;;5053608;28;20101;-82
2022/03/04 08:33:27;;;;;;;32.38;16.40;;;7.40;50.40;;;;;;5054279;28;20021;-82
2022/03/04 08:35:53;;;;;;;22.05;15.15;;;8.30;49.30;;;;;;5056323;28;20049;-82
2022/03/04 08:38:19;;;;;;;20.35;14.70;;;9.10;48.00;;;;;;5054998;28;20069;-82
2022/03/04 08:40:45;;;;;;;18.52;14.75;;;9.70;46.50;;;;;;5056521;28;20394;-82
2022/03/04 08:43:10;;;;;;;23.05;16.02;;;10.40;43.90;;;;;;5046358;28;20029;-81
2022/03/04 08:45:36;;;;;;;29.33;19.30;;;11.20;40.90;;;;;;5075780;28;20025;-83
2022/03/04 08:48:06;;;;;;;25.38;17.58;;;10.40;41.30;;;;;;5056680;28;20028;-83
2022/03/04 08:50:33;;;;;;;21.23;16.97;;;9.70;41.80;;;;;;5052131;28;20060;-83
2022/03/04 08:53:01;;;;;;;24.50;17.30;;;9.10;42.20;;;;;;5064315;28;20078;-83
2022/03/04 08:55:30;;;;;;;19.80;13.70;;;8.60;42.50;;;;;;5063680;28;20037;-83
2022/03/04 08:57:57;;;;;;;22.63;13.93;;;8.30;42.60;;;;;;5050953;28;20096;-82
2022/03/04 09:00:23;;;;;;;22.83;14.63;;;8.00;42.60;;;;;;5063082;28;20403;-83
2022/03/04 09:02:49;;;;;;;24.13;13.50;;;7.90;42.80;;;;;;5050946;28;20025;-83
2022/03/04 09:05:15;;;;;;;23.60;12.87;;;7.70;42.60;;;;;;5051244;28;20061;-83
2022/03/04 09:07:41;;;;;;;17.80;12.13;;;7.60;42.60;;;;;;5048878;28;20040;-82
2022/03/04 09:10:08;;;;;;;23.73;14.20;;;7.60;42.60;;;;;;5054508;28;20032;-83
2022/03/04 09:12:34;;;;;;;21.33;13.60;;;7.50;42.30;;;;;;5070628;28;20025;-82
2022/03/04 09:14:59;;;;;;;17.37;11.73;;;7.50;42.20;;;;;;5045506;28;20044;-83
2022/03/04 09:17:25;;;;;;;19.13;12.30;;;7.40;42.00;;;;;;5055637;28;20425;-83
2022/03/04 09:19:51;;;;;;;18.37;12.73;;;7.50;41.90;;;;;;5070178;28;20063;-83
2022/03/04 09:22:17;;;;;;;15.80;11.40;;;7.50;41.50;;;;;;5055610;28;20405;-83
2022/03/04 09:24:42;;;;;;;19.73;12.50;;;7.50;41.40;;;;;;5056908;28;20047;-83
2022/03/04 09:27:08;;;;;;;19.33;12.30;;;7.60;41.20;;;;;;5060468;28;20056;-83
2022/03/04 09:29:35;;;;;;;15.87;11.47;;;7.50;41.10;;;;;;5056944;28;20029;-83
2022/03/04 09:32:00;;;;;;;18.93;12.07;;;7.60;41.00;;;;;;5055716;28;20134;-82
2022/03/04 09:34:26;;;;;;;21.33;12.97;;;7.60;41.00;;;;;;5072839;28;20028;-83
2022/03/04 09:36:52;;;;;;;20.70;11.20;;;7.60;40.70;;;;;;5073745;28;20115;-82
2022/03/04 09:39:18;;;;;;;18.93;11.50;;;7.40;40.60;;;;;;5051371;28;20024;-83
2022/03/04 09:41:45;;;;;;;16.30;11.60;;;7.40;40.60;;;;;;5065856;28;20020;-83
2022/03/04 09:44:15;;;;;;;20.63;11.87;;;7.60;40.60;;;;;;5053722;28;20025;-83
2022/03/04 09:46:42;;;;;;;19.03;11.20;;;7.90;40.20;;;;;;5049549;28;20036;-82
2022/03/04 09:49:08;;;;;;;20.07;12.23;;;8.10;40.00;;;;;;5052236;28;20032;-82
2022/03/04 09:51:35;;;;;;;21.87;12.27;;;8.40;39.70;;;;;;5048875;28;20028;-83
2022/03/04 09:54:01;;;;;;;19.83;11.70;;;8.40;39.40;;;;;;5051881;28;20649;-83
2022/03/04 09:56:27;;;;;;;19.83;12.47;;;8.50;38.80;;;;;;5050624;28;20043;-82
2022/03/04 09:58:53;;;;;;;18.10;11.97;;;8.40;38.30;;;;;;5053089;28;20025;-83
2022/03/04 10:01:19;;;;;;;17.27;10.67;;;8.40;38.50;;;;;;5047260;28;20127;-83
2022/03/04 10:03:46;;;;;;;20.00;12.70;;;8.60;38.60;;;;;;5073867;28;20024;-83
2022/03/04 10:06:13;;;;;;;19.20;11.90;;;8.80;37.90;;;;;;5055790;28;20028;-83
2022/03/04 10:08:41;;;;;;;12.13;9.03;;;8.80;37.80;;;;;;5073523;28;20060;-82
2022/03/04 10:11:07;;;;;;;20.37;12.57;;;8.90;37.60;;;;;;5056041;28;20025;-82
2022/03/04 10:13:40;;;;;;;17.50;11.53;;;9.00;37.60;;;;;;5073397;28;20059;-83
2022/03/04 10:16:06;;;;;;;17.80;11.53;;;9.10;36.90;;;;;;5071961;28;20032;-83
2022/03/04 10:18:31;;;;;;;19.37;12.20;;;9.20;36.90;;;;;;5049179;28;20111;-83
2022/03/04 10:20:57;;;;;;;19.93;12.33;;;9.40;36.70;;;;;;5053087;28;20024;-82
2022/03/04 10:23:27;;;;;;;17.23;10.97;;;9.50;36.40;;;;;;5072499;28;20028;-83
2022/03/04 10:25:58;;;;;;;17.40;12.50;;;9.60;36.00;;;;;;5053800;28;20028;-82
2022/03/04 10:28:27;;;;;;;18.60;12.30;;;9.60;35.80;;;;;;5071581;28;20107;-83
2022/03/04 10:30:54;;;;;;;22.37;12.73;;;9.60;35.80;;;;;;5072216;28;20055;-83
2022/03/04 10:33:26;;;;;;;21.27;12.90;;;9.70;35.60;;;;;;5039085;28;20060;-82
2022/03/04 10:36:09;;;;;;;26.00;13.30;;;9.80;35.30;;;;;;5057466;28;20028;-82
2022/03/04 10:38:35;;;;;;;;;;;9.70;35.10;;;;;;5057737;28;20462;-82
2022/03/04 10:41:19;;;;;;;26.50;14.47;;;9.50;35.40;;;;;;5055119;28;19949;-82
2022/03/04 10:43:45;;;;;;;23.57;14.40;;;9.40;35.40;;;;;;5062097;28;20025;-82
2022/03/04 10:46:10;;;;;;;22.90;14.87;;;9.50;35.70;;;;;;5070484;28;20078;-83
2022/03/04 10:48:36;;;;;;;20.30;13.93;;;9.70;35.70;;;;;;5066596;28;20023;-83
2022/03/04 10:51:05;;;;;;;20.10;14.20;;;9.80;35.30;;;;;;5054273;28;20017;-82
2022/03/04 10:53:32;;;;;;;22.40;14.73;;;9.90;35.30;;;;;;5052065;28;20020;-82
2022/03/04 10:56:04;;;;;;;28.40;14.90;;;9.80;34.70;;;;;;5060910;28;20029;-82
2022/03/04 10:58:37;;;;;;;33.33;17.67;;;9.80;35.10;;;;;;5048053;28;20025;-82
2022/03/04 11:01:12;;;;;;;23.33;15.63;;;9.70;34.70;;;;;;5071413;28;20017;-82
2022/03/04 11:03:40;;;;;;;24.10;14.83;;;9.70;34.60;;;;;;5055152;28;20028;-82
2022/03/04 11:06:14;;;;;;;24.87;15.20;;;9.60;34.90;;;;;;5055012;28;20112;-82
2022/03/04 11:08:42;;;;;;;24.17;14.60;;;9.80;35.10;;;;;;5055089;28;20052;-82
2022/03/04 11:11:08;;;;;;;24.10;14.37;;;10.00;35.10;;;;;;5054602;28;20032;-82
2022/03/04 11:13:34;;;;;;;33.17;16.20;;;10.20;34.90;;;;;;5035247;28;20509;-82
2022/03/04 11:16:02;;;;;;;20.90;13.60;;;10.30;34.80;;;;;;5049522;28;20432;-82
2022/03/04 11:18:28;;;;;;;22.80;13.73;;;10.40;34.90;;;;;;5072625;28;20504;-82
2022/03/04 11:20:56;;;;;;;24.47;14.00;;;10.40;34.90;;;;;;5072902;28;20020;-82
2022/03/04 11:23:25;;;;;;;23.27;15.27;;;10.60;34.60;;;;;;5072525;28;20056;-82
2022/03/04 11:26:05;;;;;;;24.33;16.37;;;10.40;34.30;;;;;;5054543;28;20024;-82
2022/03/04 11:28:49;;;;;;;22.73;15.63;;;10.60;34.10;;;;;;5049939;28;20626;-82
2022/03/04 11:31:20;;;;;;;26.47;16.23;;;10.70;34.10;;;;;;5050385;28;20031;-82
2022/03/04 11:33:52;;;;;;;23.27;16.13;;;10.70;34.10;;;;;;5072512;28;20108;-82
2022/03/04 11:36:25;;;;;;;26.50;16.17;;;10.70;34.10;;;;;;5047802;28;20024;-82
2022/03/04 11:38:53;;;;;;;25.00;16.10;;;10.90;34.10;;;;;;5054886;28;20024;-82
2022/03/04 11:41:34;;;;;;;21.07;14.63;;;11.00;33.80;;;;;;5054051;28;20028;-82
2022/03/04 11:44:14;;;;;;;23.37;16.23;;;11.10;33.60;;;;;;5071607;28;20017;-82
2022/03/04 11:46:52;;;;;;;21.87;16.33;;;11.00;33.20;;;;;;5070306;28;20104;-83
2022/03/04 11:49:48;;;;;;;23.93;14.50;;;11.10;33.30;;;;;;5066586;28;20074;-83
2022/03/04 11:52:21;;;;;;;23.10;16.47;;;11.20;33.20;;;;;;5066167;28;21580;-83
2022/03/04 11:54:50;;;;;;;;;;;11.30;33.10;;;;;;5068768;28;20050;-83
2022/03/04 11:57:22;;;;;;;27.63;16.60;;;11.30;33.40;;;;;;5066388;28;19908;-82
2022/03/04 11:59:51;;;;;;;;;;;11.30;32.80;;;;;;5064807;28;20017;-82
2022/03/04 12:02:21;;;;;;;25.97;15.30;;;11.20;33.00;;;;;;5055295;28;19944;-82
2022/03/04 12:04:49;;;;;;;24.50;16.00;;;11.20;32.90;;;;;;5061872;28;20032;-82
2022/03/04 12:07:15;;;;;;;24.60;16.80;;;11.20;32.60;;;;;;5056777;28;20119;-82
2022/03/04 12:09:49;;;;;;;24.37;16.60;;;11.10;32.30;;;;;;5061622;28;20589;-82
2022/03/04 12:12:23;;;;;;;26.10;16.30;;;11.10;32.20;;;;;;5066975;28;20094;-82
2022/03/04 12:14:53;;;;;;;24.77;16.03;;;11.10;32.10;;;;;;5061515;28;20552;-82
2022/03/04 12:17:20;;;;;;;27.40;16.27;;;11.20;32.20;;;;;;5061536;28;20559;-82
2022/03/04 12:19:47;;;;;;;24.10;16.63;;;11.30;32.10;;;;;;5053523;28;20048;-84
2022/03/04 12:22:15;;;;;;;29.57;16.90;;;11.50;31.70;;;;;;5069726;28;20486;-83
2022/03/04 12:24:52;;;;;;;24.30;16.17;;;11.50;31.40;;;;;;5049348;28;20024;-83
2022/03/04 12:27:38;;;;;;;23.80;16.20;;;11.60;31.20;;;;;;5049812;28;20055;-83
2022/03/04 12:30:21;;;;;;;25.43;17.73;;;11.60;31.10;;;;;;5057052;28;20078;-83
2022/03/04 12:32:53;;;;;;;25.70;16.67;;;11.70;31.00;;;;;;5063652;28;20074;-83
2022/03/04 12:35:21;;;;;;;20.80;14.93;;;11.70;31.00;;;;;;5064093;28;20098;-82